Eureka Center, Wisconsin
Current Conditions -  °F | °C
As of 7:15 PM on Thursday 27 Nov 2014 (Local Time) from KOEO Reporting Station
Clear Clear  
Wind Chill:   Ceiling: Unl
Heat Index:   Visibility: 10mi
Dew Point:   Wind: 3mph
Humidity: 68%   Direction: 130°SE
Pressure: 30.37"   Gusts: NA
Location:  45.4182°N, 92.6295°W
Report Text: KOEO 280115Z AUTO 13003KT 10SM CLR M13/M18 A3037 RMK AO2 T11321179
Loading
Personal Weather Stations






























Interactive Weather Map New forecast layout! Learn more

10-Day Weather Forecast

Advertisements
Track Severe Weather on mobile